createdAt,value
2022-08-17T00:00:34.460Z,19.33
2022-08-17T00:01:51.316Z,19.21
2022-08-17T00:03:02.758Z,19.32
2022-08-17T00:04:09.280Z,19.23
2022-08-17T00:05:15.706Z,19.23
2022-08-17T00:06:21.681Z,19.22
2022-08-17T00:07:23.173Z,19.11
2022-08-17T00:08:33.228Z,19.11
2022-08-17T00:09:34.678Z,19.12
2022-08-17T00:10:37.224Z,19.12
2022-08-17T00:11:41.722Z,19.13
2022-08-17T00:12:44.767Z,19.21
2022-08-17T00:13:49.503Z,19.18
2022-08-17T00:14:50.981Z,19.16
2022-08-17T00:15:56.029Z,19.06
2022-08-17T00:16:58.839Z,19.07
2022-08-17T00:18:00.367Z,19.06
2022-08-17T00:19:07.289Z,19.05
2022-08-17T00:20:12.038Z,19.05
2022-08-17T00:21:16.371Z,19.04
2022-08-17T00:22:32.714Z,18.99
2022-08-17T00:23:37.100Z,18.91
2022-08-17T00:24:38.650Z,18.98
2022-08-17T00:25:42.155Z,18.97
2022-08-17T00:26:45.012Z,18.93
2022-08-17T00:27:46.987Z,18.93
2022-08-17T00:28:48.586Z,18.97
2022-08-17T00:29:53.351Z,18.93
2022-08-17T00:30:55.583Z,18.91
2022-08-17T00:31:57.219Z,18.91
2022-08-17T00:33:12.397Z,18.83
2022-08-17T00:34:18.944Z,18.80
2022-08-17T00:35:23.707Z,18.67
2022-08-17T00:36:25.625Z,18.66
2022-08-17T00:37:27.312Z,18.58
2022-08-17T00:38:29.589Z,18.52
2022-08-17T00:39:31.557Z,18.57
2022-08-17T00:40:44.312Z,18.54
2022-08-17T00:41:46.263Z,18.52
2022-08-17T00:42:49.299Z,18.50
2022-08-17T00:43:54.094Z,18.54
2022-08-17T00:44:55.575Z,18.20
2022-08-17T00:45:57.960Z,17.91
2022-08-17T00:46:59.451Z,17.97
2022-08-17T00:48:00.890Z,18.09
2022-08-17T00:49:03.975Z,18.20
2022-08-17T00:50:09.338Z,18.10
2022-08-17T00:51:35.614Z,18.11
2022-08-17T00:52:43.599Z,18.18
2022-08-17T00:53:54.807Z,18.33
2022-08-17T00:54:56.824Z,18.29
2022-08-17T00:56:01.697Z,18.37
2022-08-17T00:57:11.136Z,18.35
2022-08-17T00:58:12.790Z,18.49
2022-08-17T00:59:17.777Z,18.55
2022-08-17T01:00:28.129Z,18.47
2022-08-17T01:01:31.132Z,18.38
2022-08-17T01:02:42.052Z,18.38
2022-08-17T01:03:44.361Z,18.35
2022-08-17T01:04:50.149Z,18.40
2022-08-17T01:05:54.952Z,18.45
2022-08-17T01:06:58.738Z,18.42
2022-08-17T01:08:02.485Z,18.38
2022-08-17T01:09:04.864Z,18.35
2022-08-17T01:10:59.778Z,18.34
2022-08-17T01:11:33.556Z,18.33
2022-08-17T01:12:37.021Z,18.24
2022-08-17T01:13:41.856Z,18.26
2022-08-17T01:14:43.970Z,18.28
2022-08-17T01:15:58.166Z,18.23
2022-08-17T01:17:00.721Z,18.21
2022-08-17T01:18:04.426Z,18.19
2022-08-17T01:19:14.934Z,18.16
2022-08-17T01:20:16.912Z,18.03
2022-08-17T01:21:40.526Z,18.07
2022-08-17T01:22:42.062Z,18.17
2022-08-17T01:23:43.556Z,18.06
2022-08-17T01:24:53.646Z,18.01
2022-08-17T01:25:57.895Z,18.11
2022-08-17T01:26:59.989Z,18.11
2022-08-17T01:28:02.608Z,18.10
2022-08-17T01:29:06.302Z,18.07
2022-08-17T01:30:57.297Z,18.19
2022-08-17T01:31:45.504Z,18.16
2022-08-17T01:32:47.030Z,18.14
2022-08-17T01:33:48.607Z,18.11
2022-08-17T01:34:50.932Z,18.03
2022-08-17T01:35:52.622Z,18.11
2022-08-17T01:36:58.149Z,17.91
2022-08-17T01:37:59.631Z,17.95
2022-08-17T01:39:01.200Z,17.98
2022-08-17T01:40:21.679Z,18.09
2022-08-17T01:41:24.335Z,18.07
2022-08-17T01:42:33.657Z,18.04
2022-08-17T01:43:42.177Z,18.03
2022-08-17T01:44:44.394Z,18.11
2022-08-17T01:45:48.470Z,18.15
2022-08-17T01:47:05.402Z,18.19
2022-08-17T01:48:06.914Z,18.04
2022-08-17T01:49:10.904Z,17.94
2022-08-17T01:50:22.715Z,17.87
2022-08-17T01:51:33.126Z,17.90
2022-08-17T01:52:35.563Z,17.88
2022-08-17T01:53:40.682Z,17.88
2022-08-17T01:54:45.468Z,17.92
2022-08-17T01:55:55.491Z,17.95
2022-08-17T01:56:57.033Z,17.98
2022-08-17T01:57:58.623Z,18.00
2022-08-17T01:59:00.555Z,17.97
2022-08-17T02:00:03.508Z,17.97
2022-08-17T02:01:07.039Z,17.97
2022-08-17T02:02:08.763Z,17.91
2022-08-17T02:03:10.572Z,17.97
2022-08-17T02:04:12.680Z,17.95
2022-08-17T02:05:14.352Z,18.01
2022-08-17T02:06:27.924Z,17.99
2022-08-17T02:07:29.840Z,17.98
2022-08-17T02:08:38.689Z,17.95
2022-08-17T02:09:42.126Z,18.01
2022-08-17T02:10:46.840Z,17.90
2022-08-17T02:11:48.518Z,17.85
2022-08-17T02:12:51.981Z,17.82
2022-08-17T02:13:55.059Z,17.81
2022-08-17T02:15:09.626Z,17.76
2022-08-17T02:16:11.369Z,17.48
2022-08-17T02:17:13.221Z,17.32
2022-08-17T02:18:15.638Z,17.33
2022-08-17T02:19:17.849Z,17.28
2022-08-17T02:20:41.778Z,17.36
2022-08-17T02:21:43.581Z,17.26
2022-08-17T02:22:47.791Z,17.27
2022-08-17T02:23:50.157Z,17.28
2022-08-17T02:25:00.522Z,17.36
2022-08-17T02:26:03.947Z,17.45
2022-08-17T02:27:06.118Z,17.48
2022-08-17T02:28:07.587Z,17.49
2022-08-17T02:29:09.115Z,17.46
2022-08-17T02:30:59.741Z,17.47
2022-08-17T02:31:35.607Z,17.51
2022-08-17T02:32:37.849Z,17.47
2022-08-17T02:33:42.623Z,17.48
2022-08-17T02:34:45.029Z,17.45
2022-08-17T02:35:46.582Z,17.43
2022-08-17T02:36:48.614Z,17.45
2022-08-17T02:37:51.917Z,17.45
2022-08-17T02:38:58.613Z,17.48
2022-08-17T02:40:00.390Z,17.45
2022-08-17T02:41:02.110Z,17.36
2022-08-17T02:42:04.382Z,17.37
2022-08-17T02:43:07.498Z,17.25
2022-08-17T02:44:08.997Z,17.21
2022-08-17T02:45:20.556Z,17.20
2022-08-17T02:46:22.631Z,17.24
2022-08-17T02:47:24.905Z,17.22
2022-08-17T02:48:30.948Z,17.18
2022-08-17T02:49:33.288Z,17.15
2022-08-17T02:50:34.806Z,17.14
2022-08-17T02:51:36.723Z,17.14
2022-08-17T02:52:42.848Z,17.08
2022-08-17T02:53:45.444Z,17.06
2022-08-17T02:54:47.213Z,17.14
2022-08-17T02:55:48.716Z,17.21
2022-08-17T02:56:50.596Z,17.23
2022-08-17T02:57:53.115Z,17.27
2022-08-17T02:58:54.564Z,17.28
2022-08-17T02:59:56.064Z,17.27
2022-08-17T03:00:57.576Z,17.31
2022-08-17T03:02:00.614Z,17.36
2022-08-17T03:03:04.383Z,17.32
2022-08-17T03:04:05.972Z,17.43
2022-08-17T03:05:09.120Z,17.58
2022-08-17T03:06:11.156Z,17.50
2022-08-17T03:07:12.778Z,17.56
2022-08-17T03:08:15.514Z,17.50
2022-08-17T03:09:17.004Z,17.50
2022-08-17T03:10:20.054Z,17.41
2022-08-17T03:11:22.367Z,17.39
2022-08-17T03:12:23.862Z,17.34
2022-08-17T03:13:25.486Z,17.34
2022-08-17T03:14:27.063Z,17.28
2022-08-17T03:15:31.562Z,17.20
2022-08-17T03:16:33.500Z,17.16
2022-08-17T03:17:36.189Z,17.06
2022-08-17T03:18:37.802Z,16.99
2022-08-17T03:19:41.544Z,17.05
2022-08-17T03:20:44.705Z,17.05
2022-08-17T03:21:46.162Z,17.06
2022-08-17T03:23:02.935Z,17.08
2022-08-17T03:24:08.949Z,16.97
2022-08-17T03:25:13.350Z,16.96
2022-08-17T03:26:21.284Z,16.95
2022-08-17T03:27:22.942Z,16.94
2022-08-17T03:28:24.997Z,17.10
2022-08-17T03:29:26.504Z,17.13
2022-08-17T03:30:28.954Z,16.96
2022-08-17T03:31:31.773Z,16.78
2022-08-17T03:32:38.878Z,16.75
2022-08-17T03:33:40.468Z,16.81
2022-08-17T03:34:42.702Z,16.75
2022-08-17T03:35:44.778Z,16.76
2022-08-17T03:36:46.583Z,16.83
2022-08-17T03:37:48.427Z,16.70
2022-08-17T03:39:01.502Z,16.71
2022-08-17T03:40:04.480Z,16.69
2022-08-17T03:41:07.004Z,16.73
2022-08-17T03:42:32.369Z,16.79
2022-08-17T03:43:34.810Z,16.83
2022-08-17T03:44:36.509Z,16.71
2022-08-17T03:45:57.684Z,16.79
2022-08-17T03:47:17.839Z,16.80
2022-08-17T03:48:37.683Z,16.75
2022-08-17T03:49:57.600Z,16.74
2022-08-17T03:51:18.480Z,16.57
2022-08-17T03:52:38.603Z,16.61
2022-08-17T03:54:13.638Z,16.61
2022-08-17T03:55:36.015Z,16.61
2022-08-17T03:56:44.722Z,16.61
2022-08-17T03:57:46.143Z,16.64
2022-08-17T03:58:48.828Z,16.64
2022-08-17T03:59:51.475Z,16.62
2022-08-17T04:00:55.012Z,16.64
2022-08-17T04:01:59.372Z,16.59
2022-08-17T04:03:01.025Z,16.60
2022-08-17T04:04:02.618Z,16.63
2022-08-17T04:05:04.443Z,16.76
2022-08-17T04:06:06.561Z,16.71
2022-08-17T04:07:08.459Z,16.68
2022-08-17T04:08:11.018Z,16.62
2022-08-17T04:09:12.809Z,16.74
2022-08-17T04:10:14.318Z,16.71
2022-08-17T04:11:15.764Z,16.68
2022-08-17T04:12:20.111Z,16.58
2022-08-17T04:13:24.100Z,16.50
2022-08-17T04:14:27.070Z,16.55
2022-08-17T04:15:29.391Z,16.61
2022-08-17T04:16:31.751Z,16.73
2022-08-17T04:17:33.519Z,16.76
2022-08-17T04:18:34.975Z,16.73
2022-08-17T04:19:36.650Z,16.61
2022-08-17T04:20:38.173Z,16.56
2022-08-17T04:21:39.945Z,16.61
2022-08-17T04:23:02.643Z,16.23
2022-08-17T04:24:05.837Z,16.09
2022-08-17T04:25:07.243Z,16.20
2022-08-17T04:26:08.780Z,16.37
2022-08-17T04:27:10.334Z,16.41
2022-08-17T04:28:16.108Z,16.47
2022-08-17T04:29:18.485Z,16.34
2022-08-17T04:30:20.141Z,16.35
2022-08-17T04:31:21.731Z,16.34
2022-08-17T04:32:58.519Z,16.40
2022-08-17T04:33:44.902Z,16.52
2022-08-17T04:34:46.320Z,16.56
2022-08-17T04:35:50.602Z,16.57
2022-08-17T04:36:52.833Z,16.57
2022-08-17T04:37:55.162Z,16.57
2022-08-17T04:38:58.322Z,16.63
2022-08-17T04:40:18.156Z,16.69
2022-08-17T04:41:38.312Z,16.78
2022-08-17T04:42:44.825Z,16.77
2022-08-17T04:43:48.487Z,16.91
2022-08-17T04:44:49.918Z,16.91
2022-08-17T04:45:57.241Z,16.93
2022-08-17T04:46:58.794Z,17.02
2022-08-17T04:48:00.827Z,17.06
2022-08-17T04:49:08.050Z,17.13
2022-08-17T04:50:09.792Z,17.06
2022-08-17T04:51:17.409Z,17.12
2022-08-17T04:52:42.628Z,17.08
2022-08-17T04:53:43.480Z,16.98
2022-08-17T04:54:44.916Z,16.97
2022-08-17T04:55:46.352Z,16.98
2022-08-17T04:56:48.288Z,16.98
2022-08-17T04:57:49.822Z,17.05
2022-08-17T04:58:55.041Z,17.08
2022-08-17T04:59:56.477Z,17.14
2022-08-17T05:00:58.035Z,17.19
2022-08-17T05:01:59.561Z,17.29
2022-08-17T05:03:01.395Z,17.38
2022-08-17T05:04:33.006Z,17.33
2022-08-17T05:05:37.542Z,17.28
2022-08-17T05:06:38.986Z,17.26
2022-08-17T05:07:40.435Z,17.40
2022-08-17T05:08:42.369Z,17.50
2022-08-17T05:09:43.891Z,17.66
2022-08-17T05:10:45.793Z,17.70
2022-08-17T05:11:47.603Z,17.70
2022-08-17T05:13:00.647Z,17.73
2022-08-17T05:14:03.660Z,17.64
2022-08-17T05:15:05.596Z,17.74
2022-08-17T05:16:09.151Z,17.74
2022-08-17T05:17:11.109Z,17.74
2022-08-17T05:18:13.005Z,17.77
2022-08-17T05:19:14.795Z,17.76
2022-08-17T05:20:16.487Z,17.60
2022-08-17T05:21:19.182Z,17.61
2022-08-17T05:22:20.623Z,17.64
2022-08-17T05:23:24.690Z,17.69
2022-08-17T05:24:40.785Z,17.77
2022-08-17T05:25:51.411Z,17.97
2022-08-17T05:26:53.160Z,18.06
2022-08-17T05:27:57.456Z,18.16
2022-08-17T05:29:00.496Z,18.21
2022-08-17T05:30:04.374Z,18.21
2022-08-17T05:31:05.977Z,18.20
2022-08-17T05:32:38.289Z,18.21
2022-08-17T05:33:42.626Z,18.29
2022-08-17T05:34:45.828Z,18.33
2022-08-17T05:35:49.660Z,18.34
2022-08-17T05:36:51.116Z,18.36
2022-08-17T05:37:53.403Z,18.38
2022-08-17T05:38:59.043Z,18.39
2022-08-17T05:40:00.589Z,18.38
2022-08-17T05:41:04.187Z,18.35
2022-08-17T05:42:06.254Z,18.36
2022-08-17T05:43:19.927Z,18.38
2022-08-17T05:44:21.694Z,18.45
2022-08-17T05:45:32.147Z,18.47
2022-08-17T05:46:50.159Z,18.57
2022-08-17T05:47:51.702Z,18.60
2022-08-17T05:49:04.645Z,18.76
2022-08-17T05:50:09.875Z,18.75
2022-08-17T05:51:48.453Z,18.80
2022-08-17T05:53:22.725Z,18.91
2022-08-17T05:54:31.753Z,18.87
2022-08-17T05:55:50.869Z,18.86
2022-08-17T05:57:20.838Z,18.87
2022-08-17T05:58:22.790Z,18.89
2022-08-17T05:59:30.212Z,18.91
2022-08-17T06:00:36.390Z,18.96
2022-08-17T06:01:55.605Z,19.00
2022-08-17T06:03:08.917Z,19.05
2022-08-17T06:04:10.651Z,19.11
2022-08-17T06:05:27.217Z,19.16
2022-08-17T06:06:41.428Z,19.23
2022-08-17T06:07:59.255Z,19.27
2022-08-17T06:09:15.218Z,19.33
2022-08-17T06:10:33.627Z,19.39
2022-08-17T06:12:04.649Z,19.48
2022-08-17T06:13:29.379Z,19.57
2022-08-17T06:14:51.936Z,19.69
2022-08-17T06:16:01.885Z,19.74
2022-08-17T06:17:08.492Z,19.65
2022-08-17T06:18:14.823Z,19.56
2022-08-17T06:19:47.421Z,19.62
2022-08-17T06:20:56.869Z,19.66
2022-08-17T06:22:00.259Z,19.72
2022-08-17T06:23:10.662Z,19.75
2022-08-17T06:24:24.967Z,19.81
2022-08-17T06:25:33.981Z,19.72
2022-08-17T06:26:43.407Z,19.81
2022-08-17T06:27:53.522Z,19.87
2022-08-17T06:29:02.910Z,19.92
2022-08-17T06:30:20.331Z,19.98
2022-08-17T06:31:33.431Z,20.06
2022-08-17T06:32:41.923Z,20.15
2022-08-17T06:33:47.487Z,20.23
2022-08-17T06:34:49.512Z,20.32
2022-08-17T06:36:03.001Z,20.40
2022-08-17T06:37:34.184Z,20.53
2022-08-17T06:39:06.706Z,20.62
2022-08-17T06:40:57.674Z,20.58
2022-08-17T06:42:58.809Z,20.62
2022-08-17T06:43:50.343Z,20.67
2022-08-17T06:45:06.264Z,20.74
2022-08-17T06:46:41.126Z,20.78
2022-08-17T06:47:49.016Z,20.89
2022-08-17T06:49:13.801Z,20.90
2022-08-17T06:50:38.245Z,20.97
2022-08-17T06:51:58.484Z,21.11
2022-08-17T06:53:40.640Z,21.21
2022-08-17T06:54:50.800Z,21.34
2022-08-17T06:55:57.050Z,21.41
2022-08-17T06:57:15.400Z,21.51
2022-08-17T06:58:22.270Z,21.62
2022-08-17T06:59:54.676Z,21.70
2022-08-17T07:01:06.915Z,21.81
2022-08-17T07:02:15.376Z,21.90
2022-08-17T07:03:25.276Z,21.99
2022-08-17T07:04:31.382Z,22.10
2022-08-17T07:05:38.818Z,22.21
2022-08-17T07:06:49.235Z,22.26
2022-08-17T07:08:12.889Z,22.37
2022-08-17T07:09:35.944Z,22.42
2022-08-17T07:10:46.466Z,22.50
2022-08-17T07:12:02.055Z,22.61
2022-08-17T07:13:23.402Z,22.74
2022-08-17T07:14:37.030Z,22.84
2022-08-17T07:15:43.262Z,23.00
2022-08-17T07:16:48.871Z,23.05
2022-08-17T07:17:50.643Z,23.14
2022-08-17T07:18:53.596Z,23.24
2022-08-17T07:20:04.464Z,23.32
2022-08-17T07:21:17.493Z,23.40
2022-08-17T07:22:30.371Z,23.49
2022-08-17T07:24:03.275Z,23.59
2022-08-17T07:25:09.142Z,23.67
2022-08-17T07:26:13.521Z,23.74
2022-08-17T07:27:23.958Z,23.72
2022-08-17T07:28:35.234Z,23.61
2022-08-17T07:29:45.058Z,23.50
2022-08-17T07:30:51.140Z,23.50
2022-08-17T07:31:54.381Z,23.64
2022-08-17T07:33:00.805Z,23.75
2022-08-17T07:34:07.902Z,23.84
2022-08-17T07:35:44.016Z,23.91
2022-08-17T07:36:46.087Z,23.99
2022-08-17T07:37:57.973Z,24.11
2022-08-17T07:39:01.190Z,24.16
2022-08-17T07:40:22.465Z,24.11
2022-08-17T07:41:24.551Z,24.20
2022-08-17T07:42:26.028Z,24.31
2022-08-17T07:43:31.864Z,24.44
2022-08-17T07:44:54.171Z,24.60
2022-08-17T07:46:19.499Z,24.61
2022-08-17T07:47:41.454Z,24.66
2022-08-17T07:48:49.608Z,24.71
2022-08-17T07:49:51.123Z,24.83
2022-08-17T07:50:53.651Z,24.93
2022-08-17T07:52:00.014Z,25.08
2022-08-17T07:53:25.673Z,25.23
2022-08-17T07:54:37.917Z,25.31
2022-08-17T07:55:41.738Z,25.35
2022-08-17T07:56:48.115Z,25.38
2022-08-17T07:57:57.321Z,25.37
2022-08-17T07:59:23.659Z,25.42
2022-08-17T08:00:32.370Z,25.44
2022-08-17T08:01:39.452Z,25.37
2022-08-17T08:02:47.567Z,25.44
2022-08-17T08:03:52.556Z,25.53
2022-08-17T08:05:03.363Z,25.72
2022-08-17T08:06:20.725Z,25.43
2022-08-17T08:07:22.393Z,25.52
2022-08-17T08:08:42.176Z,25.73
2022-08-17T08:10:04.477Z,25.87
2022-08-17T08:11:10.409Z,26.04
2022-08-17T08:12:33.439Z,26.23
2022-08-17T08:13:42.528Z,26.30
2022-08-17T08:14:51.671Z,26.34
2022-08-17T08:15:56.184Z,26.39
2022-08-17T08:17:05.115Z,26.41
2022-08-17T08:18:38.693Z,26.38
2022-08-17T08:19:45.577Z,26.53
2022-08-17T08:21:04.888Z,26.64
2022-08-17T08:22:18.861Z,26.76
2022-08-17T08:23:26.348Z,26.80
2022-08-17T08:24:40.161Z,26.84
2022-08-17T08:26:05.104Z,26.88
2022-08-17T08:27:22.932Z,27.02
2022-08-17T08:28:44.929Z,27.17
2022-08-17T08:29:56.352Z,27.27
2022-08-17T08:31:12.840Z,27.31
2022-08-17T08:32:39.791Z,27.36
2022-08-17T08:34:09.076Z,27.45
2022-08-17T08:35:40.359Z,27.36
2022-08-17T08:37:17.816Z,27.28
2022-08-17T08:38:39.675Z,27.41
2022-08-17T08:39:58.578Z,27.50
2022-08-17T08:41:12.793Z,27.55
2022-08-17T08:42:42.316Z,27.64
2022-08-17T08:44:18.916Z,27.83
2022-08-17T08:45:44.763Z,27.90
2022-08-17T08:47:12.143Z,28.05
2022-08-17T08:48:57.867Z,28.10
2022-08-17T08:50:30.233Z,28.09
2022-08-17T08:51:55.984Z,28.02
2022-08-17T08:52:57.662Z,28.07
2022-08-17T08:54:11.188Z,28.37
2022-08-17T08:55:17.954Z,28.47
2022-08-17T08:56:31.597Z,28.43
2022-08-17T08:57:40.777Z,28.23
2022-08-17T08:58:57.360Z,28.13
2022-08-17T09:00:21.773Z,28.04
2022-08-17T09:02:13.996Z,28.26
2022-08-17T09:03:51.262Z,28.34
2022-08-17T09:05:12.729Z,28.32
2022-08-17T09:06:37.313Z,28.35
2022-08-17T09:07:47.012Z,28.40
2022-08-17T09:09:18.107Z,28.46
2022-08-17T09:10:25.516Z,28.38
2022-08-17T09:12:02.378Z,28.29
2022-08-17T09:13:24.018Z,28.27
2022-08-17T09:14:32.712Z,28.23
2022-08-17T09:15:52.323Z,28.13
2022-08-17T09:17:04.552Z,28.09
2022-08-17T09:19:02.231Z,28.24
2022-08-17T09:19:56.994Z,28.16
2022-08-17T09:21:18.286Z,28.17
2022-08-17T09:22:33.367Z,28.14
2022-08-17T09:23:45.101Z,28.16
2022-08-17T09:24:57.342Z,28.18
2022-08-17T09:26:06.154Z,28.35
2022-08-17T09:27:21.783Z,28.32
2022-08-17T09:28:31.004Z,28.21
2022-08-17T09:29:37.900Z,28.16
2022-08-17T09:30:54.330Z,28.32
2022-08-17T09:31:58.363Z,28.30
2022-08-17T09:33:07.256Z,28.24
2022-08-17T09:34:14.404Z,28.15
2022-08-17T09:35:25.187Z,28.13
2022-08-17T09:36:49.694Z,28.15
2022-08-17T09:37:52.209Z,28.12
2022-08-17T09:39:00.042Z,28.12
2022-08-17T09:40:16.683Z,28.24
2022-08-17T09:41:33.405Z,28.30
2022-08-17T09:42:54.339Z,28.36
2022-08-17T09:44:22.935Z,28.32
2022-08-17T09:45:31.361Z,28.35
2022-08-17T09:46:45.748Z,28.43
2022-08-17T09:47:56.583Z,28.35
2022-08-17T09:49:25.267Z,28.48
2022-08-17T09:51:05.707Z,28.55
2022-08-17T09:52:16.516Z,28.58
2022-08-17T09:53:19.722Z,28.50
2022-08-17T09:54:39.178Z,28.43
2022-08-17T09:56:08.935Z,28.37
2022-08-17T09:57:49.265Z,28.38
2022-08-17T09:59:42.400Z,28.48
2022-08-17T10:00:55.740Z,28.56
2022-08-17T10:02:26.947Z,28.48
2022-08-17T10:03:58.287Z,28.49
2022-08-17T10:05:10.657Z,28.43
2022-08-17T10:06:47.739Z,28.55
2022-08-17T10:08:23.980Z,28.58
2022-08-17T10:09:43.748Z,28.54
2022-08-17T10:10:52.431Z,28.51
2022-08-17T10:12:20.178Z,28.48
2022-08-17T10:14:17.481Z,28.57
2022-08-17T10:15:43.357Z,28.58
2022-08-17T10:17:03.046Z,28.60
2022-08-17T10:18:34.452Z,28.64
2022-08-17T10:19:45.442Z,28.70
2022-08-17T10:21:19.707Z,28.78
2022-08-17T10:22:53.074Z,28.91
2022-08-17T10:25:21.386Z,28.97
2022-08-17T10:26:17.303Z,29.32
2022-08-17T10:27:21.630Z,29.31
2022-08-17T10:28:29.753Z,29.32
2022-08-17T10:29:48.649Z,29.33
2022-08-17T10:31:05.473Z,29.42
2022-08-17T10:32:32.864Z,29.47
2022-08-17T10:33:53.371Z,29.56
2022-08-17T10:34:57.672Z,29.64
2022-08-17T10:36:18.455Z,29.70
2022-08-17T10:37:19.862Z,29.77
2022-08-17T10:38:37.105Z,29.85
2022-08-17T10:40:03.438Z,29.90
2022-08-17T10:41:13.842Z,29.97
2022-08-17T10:42:36.624Z,30.00
2022-08-17T10:44:28.547Z,30.14
2022-08-17T10:45:47.007Z,30.10
2022-08-17T10:47:13.116Z,30.01
2022-08-17T10:48:14.524Z,30.00
2022-08-17T10:49:18.963Z,29.99
2022-08-17T10:50:46.209Z,30.00
2022-08-17T10:51:54.414Z,29.91
2022-08-17T10:52:56.011Z,29.94
2022-08-17T10:53:58.388Z,30.16
2022-08-17T10:55:06.370Z,29.92
2022-08-17T10:56:13.917Z,29.81
2022-08-17T10:57:32.003Z,29.74
2022-08-17T10:58:55.642Z,29.66
2022-08-17T10:59:59.018Z,29.60
2022-08-17T11:01:02.180Z,29.58
2022-08-17T11:02:26.320Z,29.60
2022-08-17T11:03:28.045Z,29.55
2022-08-17T11:04:48.324Z,29.52
2022-08-17T11:06:05.212Z,29.48
2022-08-17T11:07:36.848Z,29.47
2022-08-17T11:09:02.698Z,29.45
2022-08-17T11:10:21.860Z,29.39
2022-08-17T11:11:39.106Z,29.37
2022-08-17T11:13:01.522Z,29.46
2022-08-17T11:14:18.876Z,29.55
2022-08-17T11:15:39.543Z,29.64
2022-08-17T11:16:47.895Z,29.62
2022-08-17T11:18:10.665Z,29.57
2022-08-17T11:19:12.061Z,29.61
2022-08-17T11:20:45.042Z,29.70
2022-08-17T11:22:01.721Z,29.74
2022-08-17T11:23:09.815Z,29.75
2022-08-17T11:24:22.068Z,29.80
2022-08-17T11:25:36.068Z,29.88
2022-08-17T11:26:46.174Z,29.85
2022-08-17T11:27:53.734Z,29.85
2022-08-17T11:29:10.784Z,29.80
2022-08-17T11:30:14.981Z,29.74
2022-08-17T11:31:39.055Z,29.82
2022-08-17T11:32:47.500Z,29.84
2022-08-17T11:33:59.141Z,29.92
2022-08-17T11:35:19.062Z,29.91
2022-08-17T11:36:54.524Z,29.97
2022-08-17T11:38:07.758Z,30.16
2022-08-17T11:39:25.471Z,30.17
2022-08-17T11:40:46.435Z,30.19
2022-08-17T11:42:11.760Z,30.25
2022-08-17T11:43:29.102Z,30.24
2022-08-17T11:44:51.162Z,30.28
2022-08-17T11:46:09.664Z,30.24
2022-08-17T11:47:41.287Z,30.21
2022-08-17T11:49:21.763Z,30.15
2022-08-17T11:51:24.247Z,30.15
2022-08-17T11:52:39.607Z,30.29
2022-08-17T11:53:41.151Z,30.34
2022-08-17T11:54:47.559Z,30.35
2022-08-17T11:55:52.011Z,30.35
2022-08-17T11:56:53.787Z,30.34
2022-08-17T11:58:18.678Z,30.27
2022-08-17T11:59:46.218Z,30.19
2022-08-17T12:00:49.631Z,30.22
2022-08-17T12:01:55.589Z,30.26
2022-08-17T12:03:22.274Z,30.32
2022-08-17T12:04:32.241Z,30.27
2022-08-17T12:05:35.334Z,30.28
2022-08-17T12:06:50.345Z,30.25
2022-08-17T12:08:15.159Z,30.19
2022-08-17T12:09:32.792Z,30.29
2022-08-17T12:10:40.765Z,30.27
2022-08-17T12:11:56.276Z,30.22
2022-08-17T12:13:18.037Z,30.25
2022-08-17T12:14:40.101Z,30.28
2022-08-17T12:15:53.007Z,30.39
2022-08-17T12:17:09.969Z,30.44
2022-08-17T12:18:28.120Z,30.47
2022-08-17T12:19:30.366Z,30.47
2022-08-17T12:20:42.373Z,30.50
2022-08-17T12:21:54.998Z,30.50
2022-08-17T12:23:25.606Z,30.47
2022-08-17T12:24:39.410Z,30.51
2022-08-17T12:25:44.145Z,30.59
2022-08-17T12:26:56.653Z,30.80
2022-08-17T12:28:06.367Z,30.88
2022-08-17T12:29:18.448Z,30.97
2022-08-17T12:30:38.192Z,31.05
2022-08-17T12:31:51.330Z,31.08
2022-08-17T12:32:53.823Z,31.05
2022-08-17T12:33:56.266Z,30.95
2022-08-17T12:34:58.303Z,30.88
2022-08-17T12:36:06.793Z,30.85
2022-08-17T12:37:15.863Z,30.82
2022-08-17T12:38:32.681Z,30.78
2022-08-17T12:39:35.126Z,30.78
2022-08-17T12:40:37.910Z,30.73
2022-08-17T12:41:43.410Z,30.75
2022-08-17T12:42:58.789Z,30.80
2022-08-17T12:44:15.508Z,30.89
2022-08-17T12:45:29.997Z,30.93
2022-08-17T12:46:47.370Z,31.01
2022-08-17T12:47:49.311Z,31.14
2022-08-17T12:48:58.962Z,31.25
2022-08-17T12:50:29.087Z,31.35
2022-08-17T12:51:31.804Z,31.47
2022-08-17T12:52:33.625Z,31.50
2022-08-17T12:53:35.850Z,31.56
2022-08-17T12:54:45.333Z,31.61
2022-08-17T12:55:49.086Z,31.75
2022-08-17T12:56:51.302Z,31.77
2022-08-17T12:57:58.459Z,31.79
2022-08-17T12:59:02.487Z,31.89
2022-08-17T13:00:25.629Z,31.92
2022-08-17T13:01:27.285Z,31.83
2022-08-17T13:02:51.642Z,31.70
2022-08-17T13:03:57.203Z,31.52
2022-08-17T13:05:00.945Z,31.50
2022-08-17T13:06:08.905Z,31.38
2022-08-17T13:07:11.097Z,31.31
2022-08-17T13:08:20.790Z,31.07
2022-08-17T13:09:35.235Z,31.01
2022-08-17T13:10:38.050Z,30.97
2022-08-17T13:11:55.622Z,30.94
2022-08-17T13:12:58.389Z,30.90
2022-08-17T13:14:09.302Z,30.83
2022-08-17T13:15:44.881Z,30.76
2022-08-17T13:16:53.442Z,30.78
2022-08-17T13:18:08.462Z,30.65
2022-08-17T13:19:15.241Z,30.55
2022-08-17T13:20:16.737Z,30.47
2022-08-17T13:21:26.694Z,30.41
2022-08-17T13:22:30.189Z,30.35
2022-08-17T13:23:33.040Z,30.27
2022-08-17T13:24:38.513Z,30.20
2022-08-17T13:25:40.327Z,30.09
2022-08-17T13:26:46.407Z,30.05
2022-08-17T13:27:52.613Z,30.02
2022-08-17T13:28:54.503Z,29.97
2022-08-17T13:30:02.540Z,29.93
2022-08-17T13:31:24.185Z,29.89
2022-08-17T13:32:54.207Z,29.85
2022-08-17T13:34:12.589Z,29.80
2022-08-17T13:35:29.501Z,29.77
2022-08-17T13:36:34.075Z,29.72
2022-08-17T13:37:37.029Z,29.73
2022-08-17T13:38:45.678Z,29.70
2022-08-17T13:39:47.274Z,29.67
2022-08-17T13:40:53.086Z,29.66
2022-08-17T13:41:56.120Z,29.63
2022-08-17T13:42:58.747Z,29.59
2022-08-17T13:44:00.442Z,29.56
2022-08-17T13:45:01.937Z,29.52
2022-08-17T13:46:31.113Z,29.47
2022-08-17T13:47:33.243Z,29.45
2022-08-17T13:48:35.234Z,29.43
2022-08-17T13:49:41.953Z,29.42
2022-08-17T13:50:55.663Z,29.38
2022-08-17T13:51:57.343Z,29.34
2022-08-17T13:52:59.757Z,29.33
2022-08-17T13:54:04.202Z,29.31
2022-08-17T13:55:19.796Z,29.29
2022-08-17T13:56:38.819Z,29.28
2022-08-17T13:57:46.460Z,29.28
2022-08-17T13:58:57.660Z,29.25
2022-08-17T14:00:19.262Z,29.26
2022-08-17T14:01:34.718Z,29.26
2022-08-17T14:02:36.291Z,29.27
2022-08-17T14:03:37.781Z,29.31
2022-08-17T14:04:42.027Z,29.32
2022-08-17T14:05:45.928Z,29.36
2022-08-17T14:06:54.765Z,29.39
2022-08-17T14:07:59.282Z,29.44
2022-08-17T14:09:03.287Z,29.49
2022-08-17T14:10:17.618Z,29.51
2022-08-17T14:11:19.949Z,29.57
2022-08-17T14:12:25.013Z,29.66
2022-08-17T14:13:26.593Z,29.80
2022-08-17T14:14:29.622Z,29.83
2022-08-17T14:15:56.067Z,29.82
2022-08-17T14:16:53.951Z,29.79
2022-08-17T14:17:55.459Z,29.79
2022-08-17T14:18:57.525Z,29.76
2022-08-17T14:20:00.075Z,29.72
2022-08-17T14:21:01.600Z,29.68
2022-08-17T14:22:06.417Z,29.62
2022-08-17T14:23:08.353Z,29.61
2022-08-17T14:24:28.737Z,29.64
2022-08-17T14:25:33.668Z,29.69
2022-08-17T14:26:36.105Z,29.78
2022-08-17T14:27:41.772Z,29.81
2022-08-17T14:28:56.716Z,29.94
2022-08-17T14:29:59.077Z,30.01
2022-08-17T14:31:01.288Z,30.10
2022-08-17T14:32:17.061Z,30.15
2022-08-17T14:33:22.572Z,30.18
2022-08-17T14:34:25.084Z,30.24
2022-08-17T14:35:28.425Z,30.21
2022-08-17T14:36:31.213Z,30.16
2022-08-17T14:37:34.440Z,30.14
2022-08-17T14:38:37.266Z,30.09
2022-08-17T14:39:39.099Z,30.06
2022-08-17T14:40:41.526Z,30.01
2022-08-17T14:41:43.010Z,29.99
2022-08-17T14:42:45.915Z,29.95
2022-08-17T14:43:47.558Z,29.92
2022-08-17T14:44:48.999Z,29.90
2022-08-17T14:45:50.816Z,29.79
2022-08-17T14:46:52.965Z,29.77
2022-08-17T14:47:54.397Z,29.75
2022-08-17T14:48:57.678Z,29.73
2022-08-17T14:49:59.656Z,29.73
2022-08-17T14:51:01.298Z,29.76
2022-08-17T14:52:03.058Z,29.77
2022-08-17T14:53:07.107Z,29.79
2022-08-17T14:54:08.723Z,29.82
2022-08-17T14:55:10.346Z,29.83
2022-08-17T14:56:13.598Z,29.83
2022-08-17T14:57:25.797Z,29.82
2022-08-17T14:58:35.878Z,29.90
2022-08-17T14:59:40.118Z,29.92
2022-08-17T15:00:43.868Z,29.90
2022-08-17T15:01:47.694Z,29.86
2022-08-17T15:02:53.862Z,29.85
2022-08-17T15:03:55.688Z,29.80
2022-08-17T15:05:02.240Z,29.59
2022-08-17T15:06:04.258Z,29.52